createdAt,value
2023-04-20T00:00:31.020Z,85.95
2023-04-20T00:02:58.843Z,85.99
2023-04-20T00:05:27.213Z,85.94
2023-04-20T00:07:54.913Z,85.98
2023-04-20T00:10:24.046Z,86.05
2023-04-20T00:12:51.747Z,86.08
2023-04-20T00:15:19.342Z,86.13
2023-04-20T00:17:48.687Z,86.10
2023-04-20T00:20:16.210Z,86.15
2023-04-20T00:22:43.656Z,86.07
2023-04-20T00:25:11.412Z,86.06
2023-04-20T00:27:39.396Z,86.14
2023-04-20T00:30:07.913Z,86.08
2023-04-20T00:32:35.445Z,86.05
2023-04-20T00:35:02.996Z,86.15
2023-04-20T00:37:31.076Z,86.13
2023-04-20T00:39:58.557Z,86.14
2023-04-20T00:42:26.178Z,86.18
2023-04-20T00:44:53.709Z,86.20
2023-04-20T00:47:22.908Z,86.16
2023-04-20T00:49:51.946Z,86.19
2023-04-20T00:52:22.097Z,86.17
2023-04-20T00:54:49.838Z,86.24
2023-04-20T00:57:24.023Z,86.02
2023-04-20T00:59:51.854Z,86.08
2023-04-20T01:02:19.482Z,85.97
2023-04-20T01:04:48.000Z,85.94
2023-04-20T01:07:15.770Z,85.61
2023-04-20T01:09:43.524Z,85.44
2023-04-20T01:12:11.775Z,85.56
2023-04-20T01:14:39.414Z,85.38
2023-04-20T01:17:07.058Z,85.29
2023-04-20T01:19:34.526Z,85.25
2023-04-20T01:22:03.156Z,85.04
2023-04-20T01:24:30.801Z,85.05
2023-04-20T01:27:01.857Z,84.89
2023-04-20T01:29:29.880Z,84.42
2023-04-20T01:31:57.441Z,84.24
2023-04-20T01:34:25.961Z,83.98
2023-04-20T01:36:54.485Z,83.62
2023-04-20T01:39:22.222Z,83.85
2023-04-20T01:41:50.013Z,83.82
2023-04-20T01:44:18.312Z,83.49
2023-04-20T01:46:46.058Z,83.00
2023-04-20T01:49:14.012Z,83.15
2023-04-20T01:51:41.501Z,83.12
2023-04-20T01:54:09.091Z,82.74
2023-04-20T01:56:37.062Z,82.80
2023-04-20T01:59:04.912Z,82.56
2023-04-20T02:01:34.542Z,81.99
2023-04-20T02:04:02.206Z,82.17
2023-04-20T02:06:29.832Z,82.21
2023-04-20T02:08:57.644Z,82.03
2023-04-20T02:11:25.178Z,81.96
2023-04-20T02:13:52.673Z,81.81
2023-04-20T02:16:21.869Z,81.41
2023-04-20T02:18:49.627Z,81.80
2023-04-20T02:21:17.208Z,81.91
2023-04-20T02:23:44.732Z,81.96
2023-04-20T02:26:12.361Z,81.96
2023-04-20T02:28:41.161Z,82.14
2023-04-20T02:31:09.004Z,82.13
2023-04-20T02:33:36.679Z,82.35
2023-04-20T02:36:04.814Z,82.51
2023-04-20T02:38:33.282Z,82.58
2023-04-20T02:41:01.200Z,82.71
2023-04-20T02:43:29.223Z,82.72
2023-04-20T02:45:56.896Z,82.80
2023-04-20T02:48:24.706Z,82.94
2023-04-20T02:50:58.102Z,82.84
2023-04-20T02:53:27.706Z,82.68
2023-04-20T02:56:21.695Z,82.72
2023-04-20T02:58:55.400Z,82.73
2023-04-20T03:01:28.045Z,82.54
2023-04-20T03:04:04.768Z,82.56
2023-04-20T03:06:38.669Z,82.34
2023-04-20T03:09:09.038Z,82.27
2023-04-20T03:11:50.261Z,82.20
2023-04-20T03:14:32.337Z,82.02
2023-04-20T03:17:00.019Z,82.11
2023-04-20T03:19:27.537Z,82.29
2023-04-20T03:21:55.259Z,82.28
2023-04-20T03:24:23.981Z,82.08
2023-04-20T03:26:52.423Z,82.37
2023-04-20T03:29:28.392Z,82.36
2023-04-20T03:31:56.041Z,82.64
2023-04-20T03:34:23.904Z,82.36
2023-04-20T03:36:51.700Z,82.40
2023-04-20T03:39:19.354Z,82.42
2023-04-20T03:41:47.052Z,82.56
2023-04-20T03:44:15.306Z,82.58
2023-04-20T03:46:42.863Z,82.76
2023-04-20T03:49:10.408Z,82.44
2023-04-20T03:51:40.011Z,82.10
2023-04-20T03:54:07.597Z,82.29
2023-04-20T03:56:35.422Z,82.05
2023-04-20T03:59:03.113Z,81.71
2023-04-20T04:01:31.901Z,81.61
2023-04-20T04:03:59.821Z,81.85
2023-04-20T04:06:27.594Z,81.80
2023-04-20T04:08:55.599Z,81.81
2023-04-20T04:11:25.540Z,81.83
2023-04-20T04:13:53.407Z,81.73
2023-04-20T04:16:21.061Z,81.81
2023-04-20T04:18:50.167Z,81.62
2023-04-20T04:21:17.758Z,81.60
2023-04-20T04:23:52.047Z,81.80
2023-04-20T04:26:31.857Z,81.51
2023-04-20T04:29:00.066Z,81.47
2023-04-20T04:31:29.218Z,81.21
2023-04-20T04:34:03.789Z,80.88
2023-04-20T04:36:39.891Z,79.45
2023-04-20T04:39:11.000Z,78.69
2023-04-20T04:41:42.126Z,76.84
2023-04-20T04:44:21.297Z,75.75
2023-04-20T04:46:49.445Z,75.11
2023-04-20T04:49:17.789Z,76.30
2023-04-20T04:51:45.615Z,77.18
2023-04-20T04:54:13.061Z,77.81
2023-04-20T04:56:40.980Z,77.98
2023-04-20T04:59:08.492Z,78.15
2023-04-20T05:01:36.219Z,78.11
2023-04-20T05:04:03.904Z,78.14
2023-04-20T05:06:32.637Z,78.26
2023-04-20T05:09:00.104Z,78.24
2023-04-20T05:11:27.564Z,77.75
2023-04-20T05:13:55.072Z,77.62
2023-04-20T05:16:22.749Z,77.56
2023-04-20T05:18:50.261Z,76.81
2023-04-20T05:21:17.718Z,76.52
2023-04-20T05:23:45.232Z,75.94
2023-04-20T05:26:12.696Z,75.60
2023-04-20T05:28:40.356Z,75.05
2023-04-20T05:31:08.098Z,74.71
2023-04-20T05:33:35.705Z,73.78
2023-04-20T05:36:03.418Z,73.17
2023-04-20T05:38:30.971Z,69.13
2023-04-20T05:40:58.573Z,65.41
2023-04-20T05:43:26.332Z,62.03
2023-04-20T05:45:53.925Z,57.92
2023-04-20T05:48:21.519Z,57.79
2023-04-20T05:50:49.013Z,56.00
2023-04-20T05:53:16.731Z,57.06
2023-04-20T05:55:44.154Z,60.92
2023-04-20T05:58:18.030Z,61.48
2023-04-20T06:00:46.213Z,54.90
2023-04-20T06:03:13.840Z,53.50
2023-04-20T06:05:41.629Z,51.70
2023-04-20T06:08:09.369Z,47.98
2023-04-20T06:10:36.888Z,46.32
2023-04-20T06:13:04.485Z,47.19
2023-04-20T06:15:32.132Z,47.01
2023-04-20T06:18:00.821Z,44.52
2023-04-20T06:20:28.798Z,44.22
2023-04-20T06:22:56.649Z,42.64
2023-04-20T06:25:24.262Z,42.12
2023-04-20T06:27:52.769Z,39.84
2023-04-20T06:30:20.965Z,41.30
2023-04-20T06:32:48.476Z,40.57
2023-04-20T06:35:16.211Z,38.54
2023-04-20T06:37:43.784Z,36.68
2023-04-20T06:40:11.858Z,37.85
2023-04-20T06:42:40.165Z,37.09
2023-04-20T06:45:09.074Z,36.25
2023-04-20T06:47:36.855Z,35.89
2023-04-20T06:50:09.866Z,37.57
2023-04-20T06:52:39.419Z,35.58
2023-04-20T06:55:08.038Z,36.04
2023-04-20T06:57:37.270Z,35.28
2023-04-20T07:00:08.918Z,35.02
2023-04-20T07:02:48.005Z,36.19
2023-04-20T07:05:17.442Z,34.90
2023-04-20T07:07:45.878Z,33.45
2023-04-20T07:10:16.159Z,34.09
2023-04-20T07:12:44.648Z,33.89
2023-04-20T07:15:12.827Z,34.24
2023-04-20T07:17:40.882Z,34.39
2023-04-20T07:20:09.410Z,32.56
2023-04-20T07:22:38.706Z,34.25
2023-04-20T07:25:09.232Z,33.61
2023-04-20T07:27:41.102Z,32.42
2023-04-20T07:30:10.763Z,30.90
2023-04-20T07:32:40.891Z,33.93
2023-04-20T07:35:09.731Z,34.97
2023-04-20T07:37:37.393Z,33.38
2023-04-20T07:40:06.794Z,33.51
2023-04-20T07:42:37.102Z,35.50
2023-04-20T07:45:06.991Z,37.76
2023-04-20T07:47:35.403Z,41.20
2023-04-20T07:50:07.266Z,43.17
2023-04-20T07:52:34.725Z,43.70
2023-04-20T07:55:02.448Z,45.23
2023-04-20T07:57:30.074Z,46.35
2023-04-20T07:59:57.784Z,48.15
2023-04-20T08:02:25.649Z,45.29
2023-04-20T08:04:53.624Z,40.75
2023-04-20T08:07:21.130Z,40.33
2023-04-20T08:09:48.618Z,37.88
2023-04-20T08:12:16.223Z,41.74
2023-04-20T08:14:43.882Z,42.61
2023-04-20T08:17:11.455Z,44.68
2023-04-20T08:19:40.002Z,45.06
2023-04-20T08:22:08.631Z,47.69
2023-04-20T08:24:36.256Z,49.94
2023-04-20T08:27:03.789Z,50.29
2023-04-20T08:29:31.328Z,51.80
2023-04-20T08:31:58.883Z,53.33
2023-04-20T08:34:26.364Z,54.70
2023-04-20T08:36:53.858Z,53.90
2023-04-20T08:39:24.370Z,50.81
2023-04-20T08:41:55.434Z,50.12
2023-04-20T08:44:24.464Z,51.35
2023-04-20T08:46:52.259Z,51.16
2023-04-20T08:49:21.613Z,53.45
2023-04-20T08:51:49.652Z,53.12
2023-04-20T08:54:17.453Z,52.11
2023-04-20T08:56:46.642Z,52.63
2023-04-20T08:59:15.634Z,51.03
2023-04-20T09:01:44.769Z,51.11
2023-04-20T09:04:27.243Z,50.89
2023-04-20T09:06:56.594Z,48.54
2023-04-20T09:09:27.652Z,48.92
2023-04-20T09:12:10.305Z,50.68
2023-04-20T09:14:45.843Z,49.17
2023-04-20T09:17:16.152Z,48.84
2023-04-20T09:19:53.788Z,48.21
2023-04-20T09:22:31.998Z,49.07
2023-04-20T09:24:59.979Z,48.56
2023-04-20T09:27:27.955Z,48.68
2023-04-20T09:30:04.171Z,48.59
2023-04-20T09:32:32.982Z,49.65
2023-04-20T09:35:00.605Z,51.02
2023-04-20T09:37:28.198Z,48.43
2023-04-20T09:40:00.860Z,47.61
2023-04-20T09:42:30.162Z,45.48
2023-04-20T09:44:58.263Z,44.64
2023-04-20T09:47:27.414Z,45.12
2023-04-20T09:49:56.183Z,45.72
2023-04-20T09:52:26.399Z,46.45
2023-04-20T09:54:55.452Z,43.40
2023-04-20T09:57:25.643Z,43.04
2023-04-20T09:59:54.648Z,42.27
2023-04-20T10:02:22.262Z,43.82
2023-04-20T10:05:01.867Z,43.14
2023-04-20T10:07:33.260Z,43.97
2023-04-20T10:10:12.710Z,44.22
2023-04-20T10:13:01.441Z,44.00
2023-04-20T10:15:40.932Z,40.60
2023-04-20T10:18:25.092Z,41.52
2023-04-20T10:21:07.110Z,42.51
2023-04-20T10:23:34.857Z,42.70
2023-04-20T10:26:03.735Z,42.15
2023-04-20T10:28:42.992Z,43.87
2023-04-20T10:31:16.988Z,44.63
2023-04-20T10:33:56.174Z,42.79
2023-04-20T10:36:31.073Z,45.30
2023-04-20T10:39:00.520Z,45.70
2023-04-20T10:41:28.174Z,43.16
2023-04-20T10:43:55.725Z,44.19
2023-04-20T10:46:24.837Z,45.28
2023-04-20T10:48:53.920Z,46.49
2023-04-20T10:51:22.566Z,47.27
2023-04-20T10:54:06.006Z,44.77
2023-04-20T10:56:47.326Z,43.06
2023-04-20T10:59:21.617Z,41.27
2023-04-20T11:01:51.418Z,38.86
2023-04-20T11:04:19.417Z,38.84
2023-04-20T11:06:48.435Z,40.44
2023-04-20T11:09:28.408Z,40.99
2023-04-20T11:12:04.042Z,40.25
2023-04-20T11:15:03.115Z,41.05
2023-04-20T11:17:39.146Z,41.85
2023-04-20T11:20:13.337Z,42.04
2023-04-20T11:22:43.016Z,39.51
2023-04-20T11:25:12.716Z,40.63
2023-04-20T11:27:42.148Z,41.00
2023-04-20T11:30:10.356Z,40.77
2023-04-20T11:32:38.311Z,38.59
2023-04-20T11:35:10.915Z,40.85
2023-04-20T11:37:51.363Z,39.01
2023-04-20T11:40:19.833Z,36.68
2023-04-20T11:42:47.331Z,39.99
2023-04-20T11:45:15.798Z,40.56
2023-04-20T11:47:43.695Z,42.86
2023-04-20T11:50:11.699Z,44.38
2023-04-20T11:52:39.086Z,43.44
2023-04-20T11:55:07.441Z,44.08
2023-04-20T11:57:35.016Z,45.55
2023-04-20T12:00:04.269Z,46.07
2023-04-20T12:02:41.338Z,47.61
2023-04-20T12:05:09.816Z,47.19
2023-04-20T12:07:37.507Z,45.38
2023-04-20T12:10:06.826Z,44.07
2023-04-20T12:12:34.314Z,43.61
2023-04-20T12:15:01.963Z,43.28
2023-04-20T12:17:29.532Z,41.68
2023-04-20T12:19:57.971Z,42.77
2023-04-20T12:22:25.504Z,42.91
2023-04-20T12:24:52.967Z,39.77
2023-04-20T12:27:20.490Z,41.12
2023-04-20T12:29:48.011Z,40.43
2023-04-20T12:32:15.600Z,41.41
2023-04-20T12:34:43.149Z,39.52
2023-04-20T12:37:11.125Z,39.39
2023-04-20T12:39:38.498Z,39.06
2023-04-20T12:42:06.001Z,38.00
2023-04-20T12:44:33.557Z,35.51
2023-04-20T12:47:01.196Z,36.31
2023-04-20T12:49:28.702Z,37.79
2023-04-20T12:51:56.309Z,39.93
2023-04-20T12:54:23.772Z,42.25
2023-04-20T12:56:51.637Z,42.42
2023-04-20T12:59:19.085Z,41.65
2023-04-20T13:01:46.464Z,41.03
2023-04-20T13:04:16.129Z,40.93
2023-04-20T13:06:43.966Z,41.27
2023-04-20T13:09:11.568Z,42.63
2023-04-20T13:11:39.162Z,43.28
2023-04-20T13:14:06.765Z,46.48
2023-04-20T13:16:34.268Z,48.08
2023-04-20T13:19:01.872Z,47.84
2023-04-20T13:21:29.294Z,49.68
2023-04-20T13:23:57.116Z,50.89
2023-04-20T13:26:24.775Z,52.19
2023-04-20T13:28:52.594Z,52.53
2023-04-20T13:31:20.064Z,51.16
2023-04-20T13:33:47.596Z,51.30
2023-04-20T13:36:15.436Z,51.63
2023-04-20T13:38:43.355Z,51.45
2023-04-20T13:41:10.958Z,51.09
2023-04-20T13:43:38.483Z,50.96
2023-04-20T13:46:06.417Z,49.42
2023-04-20T13:48:34.081Z,48.95
2023-04-20T13:51:01.468Z,47.77
2023-04-20T13:53:28.982Z,47.22
2023-04-20T13:55:57.770Z,47.98
2023-04-20T13:58:28.793Z,48.04
2023-04-20T14:00:56.408Z,46.11
2023-04-20T14:03:26.145Z,46.68
2023-04-20T14:05:54.072Z,46.67
2023-04-20T14:08:23.437Z,46.59
2023-04-20T14:10:51.172Z,47.90
2023-04-20T14:13:18.863Z,48.12
2023-04-20T14:15:46.316Z,47.75
2023-04-20T14:18:13.992Z,49.34
2023-04-20T14:20:41.615Z,49.63
2023-04-20T14:23:09.770Z,48.63
2023-04-20T14:25:37.437Z,49.08
2023-04-20T14:28:05.182Z,49.46
2023-04-20T14:30:32.700Z,49.36
2023-04-20T14:33:01.111Z,49.61
2023-04-20T14:35:28.886Z,49.71
2023-04-20T14:37:56.353Z,50.36
2023-04-20T14:40:23.894Z,49.84
2023-04-20T14:42:51.483Z,50.46
2023-04-20T14:45:19.314Z,51.22
2023-04-20T14:47:46.889Z,50.11
2023-04-20T14:50:14.362Z,51.51
2023-04-20T14:52:41.863Z,50.87
2023-04-20T14:55:09.594Z,50.44
2023-04-20T14:57:37.091Z,51.04
2023-04-20T15:00:06.444Z,49.39
2023-04-20T15:02:34.222Z,49.31
2023-04-20T15:05:01.978Z,49.36
2023-04-20T15:07:29.842Z,49.78
2023-04-20T15:09:57.354Z,50.18
2023-04-20T15:12:24.799Z,50.85
2023-04-20T15:14:52.329Z,51.01
2023-04-20T15:17:19.976Z,51.98
2023-04-20T15:19:47.445Z,52.27
2023-04-20T15:22:15.496Z,52.51
2023-04-20T15:24:43.000Z,52.14
2023-04-20T15:27:11.340Z,53.50
2023-04-20T15:29:38.768Z,52.86
2023-04-20T15:32:06.583Z,52.30
2023-04-20T15:34:34.117Z,51.95
2023-04-20T15:37:01.794Z,52.59
2023-04-20T15:39:29.222Z,53.16
2023-04-20T15:41:57.781Z,54.57
2023-04-20T15:44:26.047Z,55.18
2023-04-20T15:46:53.420Z,54.90
2023-04-20T15:49:21.048Z,54.88
2023-04-20T15:51:48.678Z,55.37
2023-04-20T15:54:16.430Z,55.83
2023-04-20T15:56:44.123Z,55.84
2023-04-20T15:59:11.604Z,56.73
2023-04-20T16:01:39.255Z,57.85
2023-04-20T16:04:07.305Z,57.14
2023-04-20T16:06:37.017Z,56.54
2023-04-20T16:09:04.567Z,57.16
2023-04-20T16:11:32.072Z,58.15
2023-04-20T16:13:59.754Z,58.84
2023-04-20T16:16:27.430Z,58.79
2023-04-20T16:18:55.471Z,58.99
2023-04-20T16:21:23.443Z,59.21
2023-04-20T16:23:55.275Z,59.29
2023-04-20T16:26:25.646Z,59.38
2023-04-20T16:28:54.226Z,59.25
2023-04-20T16:31:21.768Z,59.40
2023-04-20T16:33:49.290Z,59.70
2023-04-20T16:36:16.816Z,60.08
2023-04-20T16:38:44.839Z,60.18
2023-04-20T16:41:12.382Z,61.32
2023-04-20T16:43:41.037Z,61.18
2023-04-20T16:46:13.425Z,61.85
2023-04-20T16:48:40.902Z,61.74
2023-04-20T16:51:08.601Z,62.07
2023-04-20T16:53:36.105Z,62.87
2023-04-20T16:56:03.635Z,63.05
2023-04-20T16:58:31.501Z,63.65
2023-04-20T17:00:59.017Z,65.25
2023-04-20T17:03:26.811Z,65.19
2023-04-20T17:05:54.497Z,64.46
2023-04-20T17:08:22.272Z,65.50
2023-04-20T17:10:49.759Z,66.22
2023-04-20T17:13:17.521Z,65.95
2023-04-20T17:15:46.278Z,66.13
2023-04-20T17:18:13.781Z,66.39
2023-04-20T17:20:42.103Z,66.49
2023-04-20T17:23:09.591Z,67.00
2023-04-20T17:25:37.213Z,66.77
2023-04-20T17:28:05.003Z,67.01
2023-04-20T17:30:32.543Z,67.45
2023-04-20T17:33:00.769Z,67.63
2023-04-20T17:35:28.332Z,68.15
2023-04-20T17:37:55.884Z,68.23
2023-04-20T17:40:23.406Z,68.41
2023-04-20T17:42:51.012Z,68.50
2023-04-20T17:45:18.684Z,68.51
2023-04-20T17:47:46.668Z,68.94
2023-04-20T17:50:16.480Z,69.07
2023-04-20T17:52:44.009Z,69.14
2023-04-20T17:55:12.040Z,69.00
2023-04-20T17:57:39.907Z,68.83
2023-04-20T18:00:11.528Z,68.75
2023-04-20T18:02:42.393Z,68.60
2023-04-20T18:05:10.562Z,68.67
2023-04-20T18:07:38.102Z,68.68
2023-04-20T18:10:06.423Z,68.89
2023-04-20T18:12:33.990Z,69.08
2023-04-20T18:15:01.716Z,69.13
2023-04-20T18:17:29.367Z,69.30
2023-04-20T18:19:56.920Z,69.66
2023-04-20T18:22:24.397Z,69.69
2023-04-20T18:24:51.993Z,70.17
2023-04-20T18:27:19.545Z,70.39
2023-04-20T18:29:47.197Z,70.56
2023-04-20T18:32:16.449Z,70.76
2023-04-20T18:34:44.234Z,71.12
2023-04-20T18:37:14.922Z,71.56
2023-04-20T18:39:42.398Z,71.89
2023-04-20T18:42:10.207Z,72.46
2023-04-20T18:44:37.747Z,72.39
2023-04-20T18:47:05.468Z,72.52
2023-04-20T18:49:34.847Z,72.69
2023-04-20T18:52:02.859Z,72.93
2023-04-20T18:54:30.373Z,72.95
2023-04-20T18:56:58.370Z,73.12
2023-04-20T18:59:26.084Z,73.46
2023-04-20T19:01:53.650Z,73.82
2023-04-20T19:04:21.440Z,74.09
2023-04-20T19:06:49.409Z,74.35
2023-04-20T19:09:17.013Z,74.72
2023-04-20T19:11:44.522Z,75.02
2023-04-20T19:14:12.305Z,75.21
2023-04-20T19:16:40.235Z,75.43
2023-04-20T19:19:08.076Z,75.40
2023-04-20T19:21:35.667Z,75.42
2023-04-20T19:24:03.259Z,75.40
2023-04-20T19:26:30.784Z,75.51
2023-04-20T19:28:59.991Z,76.07
2023-04-20T19:31:32.258Z,76.43
2023-04-20T19:33:59.908Z,77.00
2023-04-20T19:36:27.401Z,76.85
2023-04-20T19:38:54.826Z,77.02
2023-04-20T19:41:22.390Z,76.85
2023-04-20T19:43:49.837Z,76.85
2023-04-20T19:46:17.421Z,76.67
2023-04-20T19:48:45.416Z,76.61
2023-04-20T19:51:12.884Z,76.50
2023-04-20T19:53:40.458Z,76.38
2023-04-20T19:56:08.142Z,76.74
2023-04-20T19:58:35.761Z,77.07
2023-04-20T20:01:04.641Z,77.36
2023-04-20T20:03:32.301Z,77.38
2023-04-20T20:06:00.834Z,77.70
2023-04-20T20:08:28.473Z,77.72
2023-04-20T20:10:56.207Z,77.82
2023-04-20T20:13:23.787Z,78.03
2023-04-20T20:15:51.773Z,78.24
2023-04-20T20:18:20.547Z,78.36
2023-04-20T20:20:49.314Z,78.51
2023-04-20T20:23:18.228Z,78.46
2023-04-20T20:25:46.222Z,78.52
2023-04-20T20:28:14.356Z,78.52
2023-04-20T20:30:45.119Z,78.66
2023-04-20T20:33:12.978Z,78.62
2023-04-20T20:35:42.543Z,78.71
2023-04-20T20:38:10.937Z,78.80
2023-04-20T20:40:40.006Z,78.91
2023-04-20T20:43:08.586Z,78.93
2023-04-20T20:45:37.251Z,79.01
2023-04-20T20:48:05.095Z,79.08
2023-04-20T20:50:32.752Z,78.97
2023-04-20T20:53:00.397Z,78.87
2023-04-20T20:55:27.846Z,78.77
2023-04-20T20:57:55.401Z,78.72
2023-04-20T21:00:22.952Z,78.74
2023-04-20T21:02:50.850Z,78.67
2023-04-20T21:05:19.013Z,78.75
2023-04-20T21:07:46.473Z,78.71
2023-04-20T21:10:15.212Z,78.76
2023-04-20T21:12:42.697Z,78.87
2023-04-20T21:15:11.216Z,78.78
2023-04-20T21:17:38.612Z,78.83
2023-04-20T21:20:09.130Z,78.95
2023-04-20T21:22:36.700Z,78.93
2023-04-20T21:25:04.625Z,78.99
2023-04-20T21:27:32.116Z,79.08
2023-04-20T21:29:59.576Z,79.17
2023-04-20T21:32:27.034Z,79.20
2023-04-20T21:34:54.713Z,79.35
2023-04-20T21:37:22.193Z,79.37
2023-04-20T21:39:51.113Z,79.45
2023-04-20T21:42:18.661Z,79.45
2023-04-20T21:44:46.240Z,79.52
2023-04-20T21:47:13.676Z,79.65
2023-04-20T21:49:41.067Z,79.72
2023-04-20T21:52:08.573Z,79.83
2023-04-20T21:54:36.102Z,79.85
2023-04-20T21:57:03.869Z,79.86
2023-04-20T21:59:31.403Z,79.93
2023-04-20T22:01:59.228Z,80.12
2023-04-20T22:04:27.456Z,80.27
2023-04-20T22:06:55.556Z,80.26
2023-04-20T22:09:23.288Z,80.39
2023-04-20T22:11:50.751Z,80.44
2023-04-20T22:14:18.172Z,80.68
2023-04-20T22:16:46.107Z,80.78
2023-04-20T22:19:13.702Z,80.96
2023-04-20T22:21:43.166Z,81.03
2023-04-20T22:24:10.592Z,81.38
2023-04-20T22:26:38.282Z,81.37
2023-04-20T22:29:05.792Z,81.38
2023-04-20T22:31:33.265Z,81.71
2023-04-20T22:34:00.732Z,81.77
2023-04-20T22:36:28.227Z,82.01
2023-04-20T22:38:55.866Z,82.27
2023-04-20T22:41:23.391Z,82.28
2023-04-20T22:43:50.810Z,82.74
2023-04-20T22:46:18.344Z,82.77
2023-04-20T22:48:48.547Z,82.84
2023-04-20T22:51:17.360Z,82.99
2023-04-20T22:53:45.122Z,83.11
2023-04-20T22:56:14.298Z,83.27
2023-04-20T22:58:41.974Z,83.29
2023-04-20T23:01:09.456Z,83.27
2023-04-20T23:03:37.307Z,83.35
2023-04-20T23:06:05.433Z,83.45
2023-04-20T23:08:33.540Z,83.47
2023-04-20T23:11:01.138Z,83.54
2023-04-20T23:13:28.689Z,83.61
2023-04-20T23:15:56.205Z,83.83
2023-04-20T23:18:23.982Z,84.00
2023-04-20T23:20:51.414Z,84.16
2023-04-20T23:23:18.916Z,84.39
2023-04-20T23:25:46.368Z,84.37
2023-04-20T23:28:13.944Z,84.32
2023-04-20T23:30:41.459Z,84.33
2023-04-20T23:33:09.009Z,84.27
2023-04-20T23:35:39.310Z,84.25
2023-04-20T23:38:06.796Z,84.23
2023-04-20T23:40:34.462Z,84.27
2023-04-20T23:43:01.904Z,84.17
2023-04-20T23:45:29.329Z,84.17
2023-04-20T23:47:56.823Z,84.02
2023-04-20T23:50:25.490Z,84.05
2023-04-20T23:52:52.979Z,84.20
2023-04-20T23:55:20.505Z,84.27
2023-04-20T23:57:48.059Z,84.32
